Whiteman Air Force Base Knob noster US
ICAO: KSZL
IATA: SZL
Category: Large
Scheduled Services: No

Elevation: 870 ft
TransAlt. 18000 ft.

Airport Communications:
ARNG HAWK OPS:49.65
APP:127.45
ATIS:139.3
CLNC DEL:121.75
DEP:125.925
GND:128.275
303 TFS OPS:22.78
PMSV METRO:34.46
COMD POST:31.1
PTD:118.725
TWR:132.4

KSZL Zoom In..

If you have problems with the map follow the link
https://www.worldairports.se/pages/airport.php?
ICAO=KSZL

Runways:

(A) RW 01 length 12400 ft width 200 ft
ILS 110.30 / hdg 7

(B) RW 19 length 12400 ft width 200 ft
ILS 108.50 / hdg 187

Location; KSZL
Day. 21 / Time. 18.56 Zulu
* Altimeter: 30.22
* Temperature: 14° c. 57.2°f.
* Wind from: 210° Speed 10 kn.
Dewpoint: -03° c.
Visibility: 10 Statute Miles.
Clouds: Clear (automated report).

KSZL 211856Z 21010KT 10SM CLR 14/M03 A3022 RMK AO2A SLP239 T01411032


Wind From 210°
Speed 10 kn.

 
 
jpsmedia.com for Web Design worldairports.se 2018   terms of use